ADDS METAR Data INFO
IDs: Format: Raw Decoded Include TAF

Data at: 1249 UTC 19 Oct 2017

PAKT 191217Z AUTO 14003KT 4SM RA BR OVC029 07/05 A2886 RMK AO2 P0007 T00670050 TSNO
PAKT 191153Z AUTO 18004KT 5SM RA BR OVC031 07/05 A2885 RMK AO2 SLP769 P0005 60007 70107 T00720050 10083 20072 55001 TSNO
PAKT 191053Z AUTO 17006KT 10SM -RA SCT034 OVC047 08/04 A2884 RMK AO2 RAB26 SLP765 P0000 T00780044 TSNO
PAKT 190953Z AUTO 17006KT 10SM OVC035 08/04 A2884 RMK AO2 SLP768 T00830044 TSNO
PAKT 190853Z AUTO 15012KT 10SM SCT026 OVC035 08/06 A2885 RMK AO2 PK WND 12026/0755 RAB28E38 SLP769 P0000 60002 T00780056 400830050 50000 TSNO
PAKT 190753Z AUTO 14014G25KT 10SM FEW027 OVC037 08/06 A2885 RMK AO2 PK WND 13029/0654 RAB0659E39 SLP771 P0002 T00830056 TSNO
PAKT 190727Z AUTO 14015G28KT 9SM -RA FEW023 BKN030 OVC042 08/06 A2886 RMK AO2 PK WND 13029/0654 RAB0659 P0002 T00780056 TSNO
PAKT 190720Z AUTO 13015G22KT 10SM -RA FEW020 BKN028 OVC037 08/06 A2886 RMK AO2 PK WND 13029/0654 RAB0659 P0002 T00780056 TSNO
PAKT 190653Z AUTO 13022G29KT 10SM FEW023 BKN034 OVC043 08/06 A2884 RMK AO2 PK WND 13032/0609 RAE51 SLP768 P0000 T00830056 TSNO
PAKT 190553Z AUTO 13016G32KT 10SM -RA OVC040 08/04 A2885 RMK AO2 PK WND 13033/0522 SLP769 P0002 60011 T00780044 10083 20067 56014 TSNO
PAKT 190453Z 13016G25KT 7SM RA FEW027 OVC035 08/05 A2885 RMK AO2 SLP769 P0002 T00780050
PAKT 190353Z 17008KT 9SM -RA BKN029 OVC040 07/05 A2886 RMK AO2 SLP774 P0005 T00720050
PAKT 190253Z 16009KT 10SM -RA BKN024 OVC036 07/05 A2889 RMK AO2 RAB34 SLP783 P0002 60002 T00720050 56020
PAKT 190153Z 14013G20KT 10SM SCT024 OVC032 08/04 A2890 RMK AO2 PK WND 12026/0100 RAB26E39 SLP788 HARBOR WIND 10020KT P0000 T00830044
PAKT 190053Z 14016G20KT 10SM FEW021 BKN030 OVC045 08/04 A2892 RMK AO2 PK WND 11029/0028 RAE36 SLP795 HARBOR WIND 09020KT P0000 T00780044
PAKT 182353Z 13016G24KT 10SM -RA SCT020 OVC027 07/04 A2895 RMK AO2 PK WND 13026/2309 SLP804 HARBOR WIND 10020G25KT P0000 60030 T00720044 10072 20061 56019
PAKT 182253Z 13016G24KT 10SM -RA SCT018 BKN025 OVC035 07/04 A2896 RMK AO2 SLP808 HARBOR WIND 10020KT P0002 T00720044
PAKT 182153Z 14011G19KT 5SM -RA BR SCT016 OVC023 07/06 A2897 RMK AO2 SLP812 P0010 T00720056
PAKT 182053Z 15008KT 5SM RA BR SCT016 OVC023 07/05 A2900 RMK AO2 SLP822 HARBOR WIND 09017KT P0011 60018 T00670050 56013
PAKT 181953Z 14012KT 5SM -RA BR SCT012 BKN028 OVC033 07/05 A2902 RMK AO2 SLP828 HARBOR WIND 12016KT P0005 T00670050
PAKT 181853Z 14019G27KT 6SM -RA BR SCT017 OVC028 07/05 A2902 RMK AO2 PK WND 13027/1851 SLP829 HARBOR WIND 11025KT P0002 T00720050
PAKT 181753Z 14014G22KT 5SM RA BR SCT015 OVC028 06/04 A2904 RMK AO2 SLP835 HARBOR WIND 10021KT P0003 60059 T00610044 10067 20050 56014
PAKT 181653Z 14014G20KT 5SM -RA BR SCT013 OVC026 06/04 A2906 RMK AO2 SLP840 HARBOR WIND 11024KT ROOF WIND 15020KT P0005 T00560039
PAKT 181553Z 16012G21KT 9SM -RA SCT015 OVC025 05/03 A2906 RMK AO2 SLP842 HARBOR WIND 09021KT ROOF WIND 16025G30KT P0005 T00500033
PAKT 181453Z 14018G26KT 5SM RA BR SCT014 OVC022 05/03 A2908 RMK AO2 PK WND 13029/1413 SLP849 HARBOR WND 13025KT ROOF WND 15024G34KT P0011 60046 T00500033 56027
PAKT 181400Z 13017G26KT 4SM RA BR SCT014 OVC022 06/04 A2910 RMK AO2 PK WND 14026/1357 HARBOR WND 12022KT ROOF WND 14022G32KT P0002 T00560039
PAKT 181353Z AUTO 13017G29KT 4SM RA BR OVC019 06/04 A2911 RMK AO2 PK WND 12029/1343 SLP858 P0016 T00560039 TSNO
PAKT 181253Z AUTO 13019G28KT 4SM RA BR OVC021 06/04 A2914 RMK AO2 PK WND 13028/1205 SLP866 P0019 T00560039 TSNO
PAKT 181153Z AUTO 14021G32KT 5SM RA BR OVC024 06/03 A2916 RMK AO2 PK WND 14032/1151 SLP876 P0017 60064 70074 T00560033 10083 20056 56070 TSNO
PAKT 181053Z AUTO 14018G25KT 5SM RA BR OVC025 06/04 A2922 RMK AO2 PK WND 13035/1013 SLP896 P0018 T00560039 TSNO
PAKT 180953Z AUTO 14021G30KT 4SM RA BR FEW015 OVC025 06/04 A2930 RMK AO2 PK WND 12041/0934 SLP924 P0011 T00610039 TSNO
PAKT 180853Z AUTO 14027G44KT 6SM -RA BKN023 OVC030 07/04 A2937 RMK AO2 PK WND 13044/0845 RAB03 PRESFR SLP946 P0007 60018 T00720044 400940028 58067 TSNO
PAKT 180753Z AUTO 13023G32KT 10SM SCT041 BKN047 OVC055 08/05 A2945 RMK AO2 PK WND 13032/0750 RAE05B19E28 SLP972 P0001 T00830050 TSNO
PAKT 180715Z AUTO 14016G22KT 10SM SCT026 BKN039 OVC049 08/06 A2949 RMK AO2 RAE05 PRESFR P0001 T00780056 TSNO
PAKT 180653Z AUTO 14011G25KT 3SM +RA BR FEW020 OVC026 07/06 A2953 RMK AO2 PK WND 13030/0620 RAB18 SLP001 P0010 T00720056 TSNO
PAKT 180641Z AUTO 14017G25KT 4SM RA BR SCT020 BKN028 OVC035 08/06 A2953 RMK AO2 PK WND 13030/0620 RAB18 P0006 T00780061 TSNO
PAKT 180553Z AUTO 14015G22KT 10SM BKN034 OVC044 08/06 A2957 RMK AO2 RAE50 SLP014 P0001 60005 T00780056 10083 20067 58044 TSNO
PAKT 180545Z AUTO 14013KT 10SM -RA SCT026 BKN034 OVC042 08/05 A2958 RMK AO2 PRESFR P0001 T00780050 TSNO
PAKT 180453Z 17007KT 10SM -RA OVC026 08/06 A2963 RMK AO2 RAE09B45 SLP034 P0000 T00780056
PAKT 180353Z 14014G19KT 9SM -RA OVC029 07/05 A2966 RMK AO2 RAB51 SLP045 P0001 T00720050
PAKT 180253Z 15007KT 10SM FEW019 BKN032 OVC049 07/05 A2970 RMK AO2 RAE27 SLP059 P0001 60003 T00720050 58029
PAKT 180153Z 14007KT 10SM -RA FEW021 SCT029 OVC036 07/06 A2974 RMK AO2 RAB08 SLP070 P0002 T00670056
PAKT 180053Z 14006KT 10SM FEW024 BKN038 07/06 A2977 RMK AO2 RAE06 SLP082 HARBOR WND 09010KT P0000 T00720056